sensor_id;sensor_type;location;lat;lon;timestamp;temperature;humidity
29551;DHT22;16488;52.396;10.696;2022-08-18T00:02:23;18.30;99.90
29551;DHT22;16488;52.396;10.696;2022-08-18T00:04:50;18.30;99.90
29551;DHT22;16488;52.396;10.696;2022-08-18T00:07:19;18.40;99.90
29551;DHT22;16488;52.396;10.696;2022-08-18T00:09:45;18.40;99.90
29551;DHT22;16488;52.396;10.696;2022-08-18T00:12:19;18.40;99.90
29551;DHT22;16488;52.396;10.696;2022-08-18T00:14:45;18.40;99.90
29551;DHT22;16488;52.396;10.696;2022-08-18T00:17:11;18.40;99.90
29551;DHT22;16488;52.396;10.696;2022-08-18T00:19:37;18.20;99.90
29551;DHT22;16488;52.396;10.696;2022-08-18T00:22:03;18.00;99.90
29551;DHT22;16488;52.396;10.696;2022-08-18T00:24:28;17.90;99.90
29551;DHT22;16488;52.396;10.696;2022-08-18T00:26:55;17.80;99.90
29551;DHT22;16488;52.396;10.696;2022-08-18T00:29:22;17.70;99.90
29551;DHT22;16488;52.396;10.696;2022-08-18T00:31:48;17.50;99.90
29551;DHT22;16488;52.396;10.696;2022-08-18T00:34:14;17.50;99.90
29551;DHT22;16488;52.396;10.696;2022-08-18T00:36:39;17.40;99.90
29551;DHT22;16488;52.396;10.696;2022-08-18T00:39:05;17.30;99.90
29551;DHT22;16488;52.396;10.696;2022-08-18T00:41:31;17.40;99.90
29551;DHT22;16488;52.396;10.696;2022-08-18T00:43:57;17.40;99.90
29551;DHT22;16488;52.396;10.696;2022-08-18T00:46:27;17.30;99.90
29551;DHT22;16488;52.396;10.696;2022-08-18T00:48:53;17.40;99.90
29551;DHT22;16488;52.396;10.696;2022-08-18T00:51:29;17.40;99.90
29551;DHT22;16488;52.396;10.696;2022-08-18T00:54:07;17.40;99.90
29551;DHT22;16488;52.396;10.696;2022-08-18T00:56:43;17.40;99.90
29551;DHT22;16488;52.396;10.696;2022-08-18T00:59:10;17.40;99.90
29551;DHT22;16488;52.396;10.696;2022-08-18T01:01:39;17.40;99.90
29551;DHT22;16488;52.396;10.696;2022-08-18T01:04:15;17.50;99.90
29551;DHT22;16488;52.396;10.696;2022-08-18T01:07:07;17.50;99.90
29551;DHT22;16488;52.396;10.696;2022-08-18T01:09:31;17.50;99.90
29551;DHT22;16488;52.396;10.696;2022-08-18T01:11:56;17.50;99.90
29551;DHT22;16488;52.396;10.696;2022-08-18T01:14:22;17.50;99.90
29551;DHT22;16488;52.396;10.696;2022-08-18T01:16:49;17.50;99.90
29551;DHT22;16488;52.396;10.696;2022-08-18T01:19:34;17.50;99.90
29551;DHT22;16488;52.396;10.696;2022-08-18T01:24:51;17.60;99.90
29551;DHT22;16488;52.396;10.696;2022-08-18T01:27:37;17.70;99.90
29551;DHT22;16488;52.396;10.696;2022-08-18T01:30:09;17.70;99.90
29551;DHT22;16488;52.396;10.696;2022-08-18T01:32:37;17.70;99.90
29551;DHT22;16488;52.396;10.696;2022-08-18T01:35:04;17.70;99.90
29551;DHT22;16488;52.396;10.696;2022-08-18T01:37:33;17.80;99.90
29551;DHT22;16488;52.396;10.696;2022-08-18T01:39:59;17.80;99.90
29551;DHT22;16488;52.396;10.696;2022-08-18T01:42:24;17.80;99.90
29551;DHT22;16488;52.396;10.696;2022-08-18T01:44:50;17.90;99.90
29551;DHT22;16488;52.396;10.696;2022-08-18T01:47:16;17.90;99.90
29551;DHT22;16488;52.396;10.696;2022-08-18T01:49:43;18.00;99.90
29551;DHT22;16488;52.396;10.696;2022-08-18T01:52:12;18.00;99.90
29551;DHT22;16488;52.396;10.696;2022-08-18T01:54:38;18.10;99.90
29551;DHT22;16488;52.396;10.696;2022-08-18T01:57:04;18.10;99.90
29551;DHT22;16488;52.396;10.696;2022-08-18T01:59:29;18.20;99.90
29551;DHT22;16488;52.396;10.696;2022-08-18T02:01:55;18.20;99.90
29551;DHT22;16488;52.396;10.696;2022-08-18T02:04:27;18.20;99.90
29551;DHT22;16488;52.396;10.696;2022-08-18T02:06:57;18.10;99.90
29551;DHT22;16488;52.396;10.696;2022-08-18T02:09:22;18.10;99.90
29551;DHT22;16488;52.396;10.696;2022-08-18T02:11:48;18.10;99.90
29551;DHT22;16488;52.396;10.696;2022-08-18T02:14:13;18.00;99.90
29551;DHT22;16488;52.396;10.696;2022-08-18T02:16:39;18.00;99.90
29551;DHT22;16488;52.396;10.696;2022-08-18T02:19:04;18.00;99.90
29551;DHT22;16488;52.396;10.696;2022-08-18T02:21:30;18.00;99.90
29551;DHT22;16488;52.396;10.696;2022-08-18T02:23:55;17.90;99.90
29551;DHT22;16488;52.396;10.696;2022-08-18T02:26:21;18.00;99.90
29551;DHT22;16488;52.396;10.696;2022-08-18T02:28:47;18.00;99.90
29551;DHT22;16488;52.396;10.696;2022-08-18T02:31:18;18.10;99.90
29551;DHT22;16488;52.396;10.696;2022-08-18T02:33:44;18.10;99.90
29551;DHT22;16488;52.396;10.696;2022-08-18T02:36:11;18.00;99.90
29551;DHT22;16488;52.396;10.696;2022-08-18T02:38:37;18.00;99.90
29551;DHT22;16488;52.396;10.696;2022-08-18T02:41:04;17.90;99.90
29551;DHT22;16488;52.396;10.696;2022-08-18T02:43:34;17.90;99.90
29551;DHT22;16488;52.396;10.696;2022-08-18T02:46:00;17.90;99.90
29551;DHT22;16488;52.396;10.696;2022-08-18T02:48:26;17.90;99.90
29551;DHT22;16488;52.396;10.696;2022-08-18T02:51:10;17.90;99.90
29551;DHT22;16488;52.396;10.696;2022-08-18T02:53:41;17.90;99.90
29551;DHT22;16488;52.396;10.696;2022-08-18T02:56:10;18.00;99.90
29551;DHT22;16488;52.396;10.696;2022-08-18T02:59:04;17.90;99.90
29551;DHT22;16488;52.396;10.696;2022-08-18T03:01:35;18.00;99.90
29551;DHT22;16488;52.396;10.696;2022-08-18T03:04:03;17.90;99.90
29551;DHT22;16488;52.396;10.696;2022-08-18T03:06:31;17.90;99.90
29551;DHT22;16488;52.396;10.696;2022-08-18T03:08:57;17.90;99.90
29551;DHT22;16488;52.396;10.696;2022-08-18T03:11:26;18.00;99.90
29551;DHT22;16488;52.396;10.696;2022-08-18T03:13:52;18.00;99.90
29551;DHT22;16488;52.396;10.696;2022-08-18T03:16:19;18.00;99.90
29551;DHT22;16488;52.396;10.696;2022-08-18T03:18:45;17.90;99.90
29551;DHT22;16488;52.396;10.696;2022-08-18T03:21:14;17.90;99.90
29551;DHT22;16488;52.396;10.696;2022-08-18T03:23:40;18.00;99.90
29551;DHT22;16488;52.396;10.696;2022-08-18T03:26:07;18.00;99.90
29551;DHT22;16488;52.396;10.696;2022-08-18T03:28:39;18.00;99.90
29551;DHT22;16488;52.396;10.696;2022-08-18T03:31:06;18.00;99.90
29551;DHT22;16488;52.396;10.696;2022-08-18T03:33:31;18.00;99.90
29551;DHT22;16488;52.396;10.696;2022-08-18T03:36:06;18.00;99.90
29551;DHT22;16488;52.396;10.696;2022-08-18T03:38:34;18.00;99.90
29551;DHT22;16488;52.396;10.696;2022-08-18T03:41:00;18.00;99.90
29551;DHT22;16488;52.396;10.696;2022-08-18T03:43:26;18.00;99.90
29551;DHT22;16488;52.396;10.696;2022-08-18T03:45:52;18.00;99.90
29551;DHT22;16488;52.396;10.696;2022-08-18T03:48:19;18.00;99.90
29551;DHT22;16488;52.396;10.696;2022-08-18T03:50:46;17.90;99.90
29551;DHT22;16488;52.396;10.696;2022-08-18T03:53:12;17.90;99.90
29551;DHT22;16488;52.396;10.696;2022-08-18T03:55:41;17.90;99.90
29551;DHT22;16488;52.396;10.696;2022-08-18T03:58:07;17.80;99.90
29551;DHT22;16488;52.396;10.696;2022-08-18T04:00:37;17.80;99.90
29551;DHT22;16488;52.396;10.696;2022-08-18T04:03:03;17.70;99.90
29551;DHT22;16488;52.396;10.696;2022-08-18T04:05:29;17.60;99.90
29551;DHT22;16488;52.396;10.696;2022-08-18T04:07:55;17.60;99.90
29551;DHT22;16488;52.396;10.696;2022-08-18T04:10:22;17.40;99.90
29551;DHT22;16488;52.396;10.696;2022-08-18T04:12:48;17.40;99.90
29551;DHT22;16488;52.396;10.696;2022-08-18T04:15:14;17.40;99.90
29551;DHT22;16488;52.396;10.696;2022-08-18T04:17:39;17.40;99.90
29551;DHT22;16488;52.396;10.696;2022-08-18T04:20:05;17.40;99.90
29551;DHT22;16488;52.396;10.696;2022-08-18T04:22:31;17.40;99.90
29551;DHT22;16488;52.396;10.696;2022-08-18T04:25:00;17.40;99.90
29551;DHT22;16488;52.396;10.696;2022-08-18T04:27:27;17.50;99.90
29551;DHT22;16488;52.396;10.696;2022-08-18T04:29:53;17.50;99.90
29551;DHT22;16488;52.396;10.696;2022-08-18T04:32:21;17.60;99.90
29551;DHT22;16488;52.396;10.696;2022-08-18T04:34:47;17.60;99.90
29551;DHT22;16488;52.396;10.696;2022-08-18T04:37:13;17.50;99.90
29551;DHT22;16488;52.396;10.696;2022-08-18T04:39:39;17.50;99.90
29551;DHT22;16488;52.396;10.696;2022-08-18T04:42:05;17.40;99.90
29551;DHT22;16488;52.396;10.696;2022-08-18T04:44:31;17.30;99.90
29551;DHT22;16488;52.396;10.696;2022-08-18T04:46:56;17.20;99.90
29551;DHT22;16488;52.396;10.696;2022-08-18T04:49:24;17.20;99.90
29551;DHT22;16488;52.396;10.696;2022-08-18T04:51:51;17.20;99.90
29551;DHT22;16488;52.396;10.696;2022-08-18T04:54:38;17.10;99.90
29551;DHT22;16488;52.396;10.696;2022-08-18T04:57:22;17.10;99.90
29551;DHT22;16488;52.396;10.696;2022-08-18T04:59:49;17.00;99.90
29551;DHT22;16488;52.396;10.696;2022-08-18T05:02:16;17.10;99.90
29551;DHT22;16488;52.396;10.696;2022-08-18T05:04:43;17.00;99.90
29551;DHT22;16488;52.396;10.696;2022-08-18T05:07:15;17.20;99.90
29551;DHT22;16488;52.396;10.696;2022-08-18T05:09:42;17.20;99.90
29551;DHT22;16488;52.396;10.696;2022-08-18T05:12:09;17.30;99.90
29551;DHT22;16488;52.396;10.696;2022-08-18T05:14:38;17.40;99.90
29551;DHT22;16488;52.396;10.696;2022-08-18T05:17:04;17.50;99.90
29551;DHT22;16488;52.396;10.696;2022-08-18T05:19:30;17.60;99.90
29551;DHT22;16488;52.396;10.696;2022-08-18T05:21:57;17.70;99.90
29551;DHT22;16488;52.396;10.696;2022-08-18T05:24:25;17.80;99.90
29551;DHT22;16488;52.396;10.696;2022-08-18T05:26:52;17.90;99.90
29551;DHT22;16488;52.396;10.696;2022-08-18T05:29:18;17.90;99.90
29551;DHT22;16488;52.396;10.696;2022-08-18T05:31:48;18.00;99.90
29551;DHT22;16488;52.396;10.696;2022-08-18T05:34:15;18.00;99.90
29551;DHT22;16488;52.396;10.696;2022-08-18T05:42:19;18.10;99.90
29551;DHT22;16488;52.396;10.696;2022-08-18T05:44:49;18.20;99.90
29551;DHT22;16488;52.396;10.696;2022-08-18T05:47:27;18.20;99.90
29551;DHT22;16488;52.396;10.696;2022-08-18T05:49:55;18.20;99.90
29551;DHT22;16488;52.396;10.696;2022-08-18T05:52:39;18.20;99.90
29551;DHT22;16488;52.396;10.696;2022-08-18T05:55:45;18.30;99.90
29551;DHT22;16488;52.396;10.696;2022-08-18T05:58:41;18.40;99.90
29551;DHT22;16488;52.396;10.696;2022-08-18T06:01:17;18.50;99.90
29551;DHT22;16488;52.396;10.696;2022-08-18T06:03:52;18.60;99.90
29551;DHT22;16488;52.396;10.696;2022-08-18T06:06:23;18.60;99.90
29551;DHT22;16488;52.396;10.696;2022-08-18T06:09:15;18.70;99.90
29551;DHT22;16488;52.396;10.696;2022-08-18T06:11:42;18.80;99.90
29551;DHT22;16488;52.396;10.696;2022-08-18T06:14:08;18.90;99.90
29551;DHT22;16488;52.396;10.696;2022-08-18T06:19:40;19.10;99.90
29551;DHT22;16488;52.396;10.696;2022-08-18T06:22:27;19.10;99.90
29551;DHT22;16488;52.396;10.696;2022-08-18T06:30:14;19.50;99.90
29551;DHT22;16488;52.396;10.696;2022-08-18T06:33:21;19.60;99.90
29551;DHT22;16488;52.396;10.696;2022-08-18T06:35:56;19.70;99.90
29551;DHT22;16488;52.396;10.696;2022-08-18T06:41:14;19.70;99.90
29551;DHT22;16488;52.396;10.696;2022-08-18T06:44:05;19.90;99.90
29551;DHT22;16488;52.396;10.696;2022-08-18T06:46:53;19.90;99.90
29551;DHT22;16488;52.396;10.696;2022-08-18T06:49:58;20.00;99.90
29551;DHT22;16488;52.396;10.696;2022-08-18T06:52:34;20.10;99.90
29551;DHT22;16488;52.396;10.696;2022-08-18T06:55:14;20.10;99.90
29551;DHT22;16488;52.396;10.696;2022-08-18T06:57:59;20.20;99.90
29551;DHT22;16488;52.396;10.696;2022-08-18T07:00:28;20.20;99.90
29551;DHT22;16488;52.396;10.696;2022-08-18T07:03:13;20.20;99.90
29551;DHT22;16488;52.396;10.696;2022-08-18T07:06:04;20.30;99.90
29551;DHT22;16488;52.396;10.696;2022-08-18T07:08:38;20.30;99.90
29551;DHT22;16488;52.396;10.696;2022-08-18T07:11:24;20.30;99.90
29551;DHT22;16488;52.396;10.696;2022-08-18T07:16:36;20.50;99.90
29551;DHT22;16488;52.396;10.696;2022-08-18T07:19:11;20.60;99.90
29551;DHT22;16488;52.396;10.696;2022-08-18T07:21:40;20.70;99.90
29551;DHT22;16488;52.396;10.696;2022-08-18T07:24:10;20.70;99.90
29551;DHT22;16488;52.396;10.696;2022-08-18T07:26:57;20.70;99.90
29551;DHT22;16488;52.396;10.696;2022-08-18T07:29:22;20.80;99.90
29551;DHT22;16488;52.396;10.696;2022-08-18T07:31:51;20.80;99.90
29551;DHT22;16488;52.396;10.696;2022-08-18T07:34:28;20.80;99.90
29551;DHT22;16488;52.396;10.696;2022-08-18T07:37:08;20.90;99.90
29551;DHT22;16488;52.396;10.696;2022-08-18T07:39:42;20.90;99.90
29551;DHT22;16488;52.396;10.696;2022-08-18T07:42:11;21.10;99.90
29551;DHT22;16488;52.396;10.696;2022-08-18T07:44:52;21.20;99.90
29551;DHT22;16488;52.396;10.696;2022-08-18T07:47:20;21.20;99.90
29551;DHT22;16488;52.396;10.696;2022-08-18T07:49:47;21.20;99.90
29551;DHT22;16488;52.396;10.696;2022-08-18T07:52:29;21.20;99.90
29551;DHT22;16488;52.396;10.696;2022-08-18T08:00:28;21.20;99.90
29551;DHT22;16488;52.396;10.696;2022-08-18T08:03:09;21.20;99.90
29551;DHT22;16488;52.396;10.696;2022-08-18T08:05:58;21.20;99.90
29551;DHT22;16488;52.396;10.696;2022-08-18T08:11:19;21.20;99.90
29551;DHT22;16488;52.396;10.696;2022-08-18T08:22:18;21.10;99.90
29551;DHT22;16488;52.396;10.696;2022-08-18T08:25:05;21.00;99.90
29551;DHT22;16488;52.396;10.696;2022-08-18T08:27:49;20.90;99.90
29551;DHT22;16488;52.396;10.696;2022-08-18T08:30:23;21.00;99.90
29551;DHT22;16488;52.396;10.696;2022-08-18T08:33:02;21.20;99.90
29551;DHT22;16488;52.396;10.696;2022-08-18T08:35:34;21.40;99.90
29551;DHT22;16488;52.396;10.696;2022-08-18T08:38:11;21.50;99.90
29551;DHT22;16488;52.396;10.696;2022-08-18T08:40:50;21.50;99.90
29551;DHT22;16488;52.396;10.696;2022-08-18T08:43:23;21.50;99.90
29551;DHT22;16488;52.396;10.696;2022-08-18T08:48:48;21.30;99.90
29551;DHT22;16488;52.396;10.696;2022-08-18T08:51:35;21.20;99.90
29551;DHT22;16488;52.396;10.696;2022-08-18T08:54:34;21.20;99.90
29551;DHT22;16488;52.396;10.696;2022-08-18T08:57:02;21.20;99.90
29551;DHT22;16488;52.396;10.696;2022-08-18T08:59:29;21.30;99.90
29551;DHT22;16488;52.396;10.696;2022-08-18T09:04:46;21.20;99.90
29551;DHT22;16488;52.396;10.696;2022-08-18T09:07:25;21.30;99.90
29551;DHT22;16488;52.396;10.696;2022-08-18T09:13:01;21.40;99.90
29551;DHT22;16488;52.396;10.696;2022-08-18T09:15:43;21.40;99.90
29551;DHT22;16488;52.396;10.696;2022-08-18T09:21:08;21.60;99.90
29551;DHT22;16488;52.396;10.696;2022-08-18T09:23:43;21.70;99.90
29551;DHT22;16488;52.396;10.696;2022-08-18T09:26:51;21.60;99.90
29551;DHT22;16488;52.396;10.696;2022-08-18T09:29:24;21.70;99.90
29551;DHT22;16488;52.396;10.696;2022-08-18T09:35:11;21.70;99.90
29551;DHT22;16488;52.396;10.696;2022-08-18T09:37:42;21.80;99.90
29551;DHT22;16488;52.396;10.696;2022-08-18T09:40:16;21.90;99.90
29551;DHT22;16488;52.396;10.696;2022-08-18T09:43:14;22.00;99.90
29551;DHT22;16488;52.396;10.696;2022-08-18T09:46:00;22.20;99.90
29551;DHT22;16488;52.396;10.696;2022-08-18T09:48:32;22.20;99.90
29551;DHT22;16488;52.396;10.696;2022-08-18T09:51:22;22.00;99.90
29551;DHT22;16488;52.396;10.696;2022-08-18T09:54:10;22.00;99.90
29551;DHT22;16488;52.396;10.696;2022-08-18T10:03:09;21.90;99.90
29551;DHT22;16488;52.396;10.696;2022-08-18T10:08:23;22.20;99.90
29551;DHT22;16488;52.396;10.696;2022-08-18T10:21:29;22.80;99.90
29551;DHT22;16488;52.396;10.696;2022-08-18T10:24:18;22.80;99.90
29551;DHT22;16488;52.396;10.696;2022-08-18T10:29:44;23.00;99.90
29551;DHT22;16488;52.396;10.696;2022-08-18T10:34:45;23.20;99.90
29551;DHT22;16488;52.396;10.696;2022-08-18T10:37:26;23.30;99.90
29551;DHT22;16488;52.396;10.696;2022-08-18T10:40:15;23.30;99.90
29551;DHT22;16488;52.396;10.696;2022-08-18T10:43:09;23.20;99.90
29551;DHT22;16488;52.396;10.696;2022-08-18T10:45:44;23.30;99.90
29551;DHT22;16488;52.396;10.696;2022-08-18T10:48:21;23.50;99.90
29551;DHT22;16488;52.396;10.696;2022-08-18T10:53:54;23.60;99.90
29551;DHT22;16488;52.396;10.696;2022-08-18T10:56:28;23.60;99.90
29551;DHT22;16488;52.396;10.696;2022-08-18T11:07:17;23.60;99.90
29551;DHT22;16488;52.396;10.696;2022-08-18T11:09:48;23.70;99.90
29551;DHT22;16488;52.396;10.696;2022-08-18T11:12:14;23.70;99.90
29551;DHT22;16488;52.396;10.696;2022-08-18T11:15:11;23.80;99.90
29551;DHT22;16488;52.396;10.696;2022-08-18T11:20:45;23.70;99.90
29551;DHT22;16488;52.396;10.696;2022-08-18T11:23:13;23.70;99.90
29551;DHT22;16488;52.396;10.696;2022-08-18T11:25:39;23.60;99.90
29551;DHT22;16488;52.396;10.696;2022-08-18T11:28:21;23.80;99.90
29551;DHT22;16488;52.396;10.696;2022-08-18T11:30:51;24.00;99.90
29551;DHT22;16488;52.396;10.696;2022-08-18T11:33:19;24.10;99.90
29551;DHT22;16488;52.396;10.696;2022-08-18T11:35:52;24.20;99.90
29551;DHT22;16488;52.396;10.696;2022-08-18T11:38:19;24.30;99.90
29551;DHT22;16488;52.396;10.696;2022-08-18T11:40:48;24.30;99.90
29551;DHT22;16488;52.396;10.696;2022-08-18T11:43:32;24.30;99.90
29551;DHT22;16488;52.396;10.696;2022-08-18T11:46:00;24.40;99.90
29551;DHT22;16488;52.396;10.696;2022-08-18T11:48:36;24.50;99.90
29551;DHT22;16488;52.396;10.696;2022-08-18T11:51:16;24.60;99.90
29551;DHT22;16488;52.396;10.696;2022-08-18T11:53:55;24.60;99.90
29551;DHT22;16488;52.396;10.696;2022-08-18T11:58:56;24.80;99.90
29551;DHT22;16488;52.396;10.696;2022-08-18T12:01:36;24.80;99.90
29551;DHT22;16488;52.396;10.696;2022-08-18T12:07:26;25.00;99.90
29551;DHT22;16488;52.396;10.696;2022-08-18T12:09:50;25.00;99.90
29551;DHT22;16488;52.396;10.696;2022-08-18T12:12:32;25.10;99.90
29551;DHT22;16488;52.396;10.696;2022-08-18T12:15:22;25.20;99.90
29551;DHT22;16488;52.396;10.696;2022-08-18T12:17:48;25.30;99.90
29551;DHT22;16488;52.396;10.696;2022-08-18T12:20:15;25.40;99.90
29551;DHT22;16488;52.396;10.696;2022-08-18T12:22:42;25.40;99.90
29551;DHT22;16488;52.396;10.696;2022-08-18T12:25:12;25.50;99.90
29551;DHT22;16488;52.396;10.696;2022-08-18T12:27:39;25.50;99.90
29551;DHT22;16488;52.396;10.696;2022-08-18T12:30:05;25.50;99.90
29551;DHT22;16488;52.396;10.696;2022-08-18T12:32:33;25.70;99.90
29551;DHT22;16488;52.396;10.696;2022-08-18T12:34:59;25.60;99.90
29551;DHT22;16488;52.396;10.696;2022-08-18T12:37:27;25.60;99.90
29551;DHT22;16488;52.396;10.696;2022-08-18T12:39:54;25.60;99.90
29551;DHT22;16488;52.396;10.696;2022-08-18T12:42:21;25.70;99.90
29551;DHT22;16488;52.396;10.696;2022-08-18T12:44:46;25.80;99.90
29551;DHT22;16488;52.396;10.696;2022-08-18T12:47:21;25.90;99.70
29551;DHT22;16488;52.396;10.696;2022-08-18T12:49:47;25.90;99.90
29551;DHT22;16488;52.396;10.696;2022-08-18T12:52:13;26.00;99.90
29551;DHT22;16488;52.396;10.696;2022-08-18T12:54:39;26.00;99.60
29551;DHT22;16488;52.396;10.696;2022-08-18T12:57:08;26.10;99.20
29551;DHT22;16488;52.396;10.696;2022-08-18T12:59:36;26.30;97.90
29551;DHT22;16488;52.396;10.696;2022-08-18T13:02:02;26.30;97.30
29551;DHT22;16488;52.396;10.696;2022-08-18T13:04:27;26.30;98.10
29551;DHT22;16488;52.396;10.696;2022-08-18T13:06:55;26.30;98.70
29551;DHT22;16488;52.396;10.696;2022-08-18T13:09:21;26.30;98.10
29551;DHT22;16488;52.396;10.696;2022-08-18T13:11:47;26.10;98.20
29551;DHT22;16488;52.396;10.696;2022-08-18T13:14:13;26.00;98.60
29551;DHT22;16488;52.396;10.696;2022-08-18T13:16:41;26.00;98.80
29551;DHT22;16488;52.396;10.696;2022-08-18T13:19:09;26.10;99.00
29551;DHT22;16488;52.396;10.696;2022-08-18T13:21:35;26.20;98.50
29551;DHT22;16488;52.396;10.696;2022-08-18T13:24:01;26.40;98.70
29551;DHT22;16488;52.396;10.696;2022-08-18T13:26:32;26.50;97.90
29551;DHT22;16488;52.396;10.696;2022-08-18T13:28:59;26.40;98.20
29551;DHT22;16488;52.396;10.696;2022-08-18T13:31:25;26.40;98.10
29551;DHT22;16488;52.396;10.696;2022-08-18T13:33:52;26.30;98.00
29551;DHT22;16488;52.396;10.696;2022-08-18T13:36:18;26.10;98.60
29551;DHT22;16488;52.396;10.696;2022-08-18T13:38:43;25.90;98.90
29551;DHT22;16488;52.396;10.696;2022-08-18T13:41:10;25.70;99.80
29551;DHT22;16488;52.396;10.696;2022-08-18T13:43:42;25.70;99.70
29551;DHT22;16488;52.396;10.696;2022-08-18T13:46:11;25.60;99.80
29551;DHT22;16488;52.396;10.696;2022-08-18T13:48:39;25.60;99.60
29551;DHT22;16488;52.396;10.696;2022-08-18T13:51:05;25.60;99.80
29551;DHT22;16488;52.396;10.696;2022-08-18T13:53:32;25.60;99.90
29551;DHT22;16488;52.396;10.696;2022-08-18T13:55:58;25.60;99.40
29551;DHT22;16488;52.396;10.696;2022-08-18T13:58:27;25.60;99.60
29551;DHT22;16488;52.396;10.696;2022-08-18T14:01:02;25.60;99.70
29551;DHT22;16488;52.396;10.696;2022-08-18T14:03:29;25.50;99.90
29551;DHT22;16488;52.396;10.696;2022-08-18T14:05:55;25.40;99.90
29551;DHT22;16488;52.396;10.696;2022-08-18T14:08:24;25.40;99.90
29551;DHT22;16488;52.396;10.696;2022-08-18T14:10:53;25.30;99.90
29551;DHT22;16488;52.396;10.696;2022-08-18T14:13:19;25.30;99.90
29551;DHT22;16488;52.396;10.696;2022-08-18T14:15:45;25.30;99.90
29551;DHT22;16488;52.396;10.696;2022-08-18T14:18:12;25.20;99.90
29551;DHT22;16488;52.396;10.696;2022-08-18T14:20:37;25.10;99.90
29551;DHT22;16488;52.396;10.696;2022-08-18T14:23:22;25.10;99.90
29551;DHT22;16488;52.396;10.696;2022-08-18T14:26:06;25.10;99.90
29551;DHT22;16488;52.396;10.696;2022-08-18T14:28:49;25.10;99.90
29551;DHT22;16488;52.396;10.696;2022-08-18T14:31:15;25.10;99.90
29551;DHT22;16488;52.396;10.696;2022-08-18T14:33:43;25.00;99.90
29551;DHT22;16488;52.396;10.696;2022-08-18T14:36:09;25.00;99.90
29551;DHT22;16488;52.396;10.696;2022-08-18T14:38:35;25.00;99.90
29551;DHT22;16488;52.396;10.696;2022-08-18T14:41:04;24.90;99.90
29551;DHT22;16488;52.396;10.696;2022-08-18T14:43:30;24.80;99.90
29551;DHT22;16488;52.396;10.696;2022-08-18T14:45:55;24.80;99.90
29551;DHT22;16488;52.396;10.696;2022-08-18T14:48:21;24.80;99.90
29551;DHT22;16488;52.396;10.696;2022-08-18T14:50:49;24.70;99.90
29551;DHT22;16488;52.396;10.696;2022-08-18T14:53:18;24.70;99.90
29551;DHT22;16488;52.396;10.696;2022-08-18T14:55:45;24.60;99.90
29551;DHT22;16488;52.396;10.696;2022-08-18T14:58:11;24.60;99.90
29551;DHT22;16488;52.396;10.696;2022-08-18T15:00:37;24.60;99.90
29551;DHT22;16488;52.396;10.696;2022-08-18T15:03:03;24.60;99.90
29551;DHT22;16488;52.396;10.696;2022-08-18T15:05:31;24.60;99.90
29551;DHT22;16488;52.396;10.696;2022-08-18T15:07:58;24.70;99.90
29551;DHT22;16488;52.396;10.696;2022-08-18T15:10:24;24.70;99.90
29551;DHT22;16488;52.396;10.696;2022-08-18T15:12:50;24.60;99.90
29551;DHT22;16488;52.396;10.696;2022-08-18T15:15:17;24.70;99.90
29551;DHT22;16488;52.396;10.696;2022-08-18T15:17:42;24.70;99.90
29551;DHT22;16488;52.396;10.696;2022-08-18T15:20:09;24.70;99.90
29551;DHT22;16488;52.396;10.696;2022-08-18T15:22:43;24.70;99.90
29551;DHT22;16488;52.396;10.696;2022-08-18T15:25:29;24.70;99.90
29551;DHT22;16488;52.396;10.696;2022-08-18T15:28:18;24.70;99.90
29551;DHT22;16488;52.396;10.696;2022-08-18T15:30:46;24.60;99.90
29551;DHT22;16488;52.396;10.696;2022-08-18T15:33:12;24.50;99.90
29551;DHT22;16488;52.396;10.696;2022-08-18T15:35:41;24.50;99.90
29551;DHT22;16488;52.396;10.696;2022-08-18T15:38:08;24.50;99.90
29551;DHT22;16488;52.396;10.696;2022-08-18T15:40:34;24.50;99.90
29551;DHT22;16488;52.396;10.696;2022-08-18T15:43:00;24.40;99.90
29551;DHT22;16488;52.396;10.696;2022-08-18T15:45:34;24.40;99.90
29551;DHT22;16488;52.396;10.696;2022-08-18T15:48:02;24.30;99.90
29551;DHT22;16488;52.396;10.696;2022-08-18T15:50:28;24.30;99.90
29551;DHT22;16488;52.396;10.696;2022-08-18T15:52:57;24.30;99.90
29551;DHT22;16488;52.396;10.696;2022-08-18T15:55:26;24.20;99.90
29551;DHT22;16488;52.396;10.696;2022-08-18T15:57:53;24.40;99.90
29551;DHT22;16488;52.396;10.696;2022-08-18T16:00:20;24.30;99.90
29551;DHT22;16488;52.396;10.696;2022-08-18T16:02:50;24.30;99.90
29551;DHT22;16488;52.396;10.696;2022-08-18T16:05:16;24.30;99.90
29551;DHT22;16488;52.396;10.696;2022-08-18T16:07:42;24.20;99.90
29551;DHT22;16488;52.396;10.696;2022-08-18T16:10:11;24.30;99.90
29551;DHT22;16488;52.396;10.696;2022-08-18T16:12:36;24.20;99.90
29551;DHT22;16488;52.396;10.696;2022-08-18T16:15:02;24.10;99.90
29551;DHT22;16488;52.396;10.696;2022-08-18T16:17:29;24.20;99.90
29551;DHT22;16488;52.396;10.696;2022-08-18T16:19:56;24.20;99.90
29551;DHT22;16488;52.396;10.696;2022-08-18T16:22:22;24.20;99.90
29551;DHT22;16488;52.396;10.696;2022-08-18T16:24:48;24.20;99.90
29551;DHT22;16488;52.396;10.696;2022-08-18T16:27:14;24.10;99.90
29551;DHT22;16488;52.396;10.696;2022-08-18T16:29:40;24.10;99.90
29551;DHT22;16488;52.396;10.696;2022-08-18T16:32:07;24.10;99.90
29551;DHT22;16488;52.396;10.696;2022-08-18T16:34:33;24.20;99.90
29551;DHT22;16488;52.396;10.696;2022-08-18T16:36:59;24.10;99.90
29551;DHT22;16488;52.396;10.696;2022-08-18T16:39:25;24.20;99.90
29551;DHT22;16488;52.396;10.696;2022-08-18T16:41:50;24.20;99.90
29551;DHT22;16488;52.396;10.696;2022-08-18T16:44:16;24.20;99.90
29551;DHT22;16488;52.396;10.696;2022-08-18T16:46:42;24.20;99.90
29551;DHT22;16488;52.396;10.696;2022-08-18T16:49:08;24.30;99.90
29551;DHT22;16488;52.396;10.696;2022-08-18T16:51:34;24.20;99.90
29551;DHT22;16488;52.396;10.696;2022-08-18T16:54:00;24.20;99.90
29551;DHT22;16488;52.396;10.696;2022-08-18T16:56:28;24.20;99.90
29551;DHT22;16488;52.396;10.696;2022-08-18T16:58:55;24.20;99.90
29551;DHT22;16488;52.396;10.696;2022-08-18T17:01:41;24.20;99.90
29551;DHT22;16488;52.396;10.696;2022-08-18T17:04:27;24.10;99.90
29551;DHT22;16488;52.396;10.696;2022-08-18T17:06:55;24.10;99.90
29551;DHT22;16488;52.396;10.696;2022-08-18T17:09:22;24.10;99.90
29551;DHT22;16488;52.396;10.696;2022-08-18T17:11:48;24.10;99.90
29551;DHT22;16488;52.396;10.696;2022-08-18T17:14:14;24.10;99.90
29551;DHT22;16488;52.396;10.696;2022-08-18T17:16:40;24.10;99.90
29551;DHT22;16488;52.396;10.696;2022-08-18T17:19:07;24.10;99.90